sensor_id;sensor_type;location;lat;lon;timestamp;P1;durP1;ratioP1;P2;durP2;ratioP2
68985;SDS011;56035;37.534;-122.308;2023-09-30T00:01:26;1.55;;;0.47;;
68985;SDS011;56035;37.534;-122.308;2023-09-30T00:06:19;1.17;;;0.50;;
68985;SDS011;56035;37.534;-122.308;2023-09-30T00:08:45;0.73;;;0.40;;
68985;SDS011;56035;37.534;-122.308;2023-09-30T00:13:41;1.50;;;0.40;;
68985;SDS011;56035;37.534;-122.308;2023-09-30T00:16:07;1.20;;;0.40;;
68985;SDS011;56035;37.534;-122.308;2023-09-30T00:18:34;2.15;;;0.40;;
68985;SDS011;56035;37.534;-122.308;2023-09-30T00:21:00;0.65;;;0.30;;
68985;SDS011;56035;37.534;-122.308;2023-09-30T00:23:28;2.17;;;0.40;;
68985;SDS011;56035;37.534;-122.308;2023-09-30T00:25:54;0.80;;;0.30;;
68985;SDS011;56035;37.534;-122.308;2023-09-30T00:30:47;1.83;;;0.50;;
68985;SDS011;56035;37.534;-122.308;2023-09-30T00:33:15;2.47;;;0.77;;
68985;SDS011;56035;37.534;-122.308;2023-09-30T00:35:41;2.38;;;0.82;;
68985;SDS011;56035;37.534;-122.308;2023-09-30T00:38:08;2.15;;;0.82;;
68985;SDS011;56035;37.534;-122.308;2023-09-30T00:40:35;3.92;;;0.95;;
68985;SDS011;56035;37.534;-122.308;2023-09-30T00:43:02;2.65;;;0.82;;
68985;SDS011;56035;37.534;-122.308;2023-09-30T00:45:28;7.03;;;1.20;;
68985;SDS011;56035;37.534;-122.308;2023-09-30T00:47:55;5.10;;;1.20;;
68985;SDS011;56035;37.534;-122.308;2023-09-30T00:50:22;3.33;;;0.85;;
68985;SDS011;56035;37.534;-122.308;2023-09-30T00:52:48;4.43;;;1.13;;
68985;SDS011;56035;37.534;-122.308;2023-09-30T00:55:15;5.03;;;1.30;;
68985;SDS011;56035;37.534;-122.308;2023-09-30T00:57:42;5.07;;;1.60;;
68985;SDS011;56035;37.534;-122.308;2023-09-30T01:02:38;3.78;;;1.23;;
68985;SDS011;56035;37.534;-122.308;2023-09-30T01:05:07;5.43;;;1.50;;
68985;SDS011;56035;37.534;-122.308;2023-09-30T01:07:34;5.05;;;1.38;;
68985;SDS011;56035;37.534;-122.308;2023-09-30T01:12:27;4.80;;;1.30;;
68985;SDS011;56035;37.534;-122.308;2023-09-30T01:14:57;6.43;;;1.08;;
68985;SDS011;56035;37.534;-122.308;2023-09-30T01:17:25;5.97;;;1.37;;
68985;SDS011;56035;37.534;-122.308;2023-09-30T01:19:54;8.37;;;1.30;;
68985;SDS011;56035;37.534;-122.308;2023-09-30T01:22:21;8.05;;;1.08;;
68985;SDS011;56035;37.534;-122.308;2023-09-30T01:24:48;5.78;;;0.88;;
68985;SDS011;56035;37.534;-122.308;2023-09-30T01:27:15;5.32;;;1.05;;
68985;SDS011;56035;37.534;-122.308;2023-09-30T01:29:43;5.93;;;1.13;;
68985;SDS011;56035;37.534;-122.308;2023-09-30T01:32:10;5.30;;;0.93;;
68985;SDS011;56035;37.534;-122.308;2023-09-30T01:37:02;5.50;;;1.40;;
68985;SDS011;56035;37.534;-122.308;2023-09-30T01:39:30;6.70;;;1.13;;
68985;SDS011;56035;37.534;-122.308;2023-09-30T01:41:56;4.35;;;1.23;;
68985;SDS011;56035;37.534;-122.308;2023-09-30T01:44:23;5.40;;;1.00;;
68985;SDS011;56035;37.534;-122.308;2023-09-30T01:46:49;8.23;;;1.77;;
68985;SDS011;56035;37.534;-122.308;2023-09-30T01:49:16;5.28;;;1.20;;
68985;SDS011;56035;37.534;-122.308;2023-09-30T01:51:49;7.07;;;1.55;;
68985;SDS011;56035;37.534;-122.308;2023-09-30T01:54:16;6.18;;;1.92;;
68985;SDS011;56035;37.534;-122.308;2023-09-30T01:56:42;9.27;;;1.42;;
68985;SDS011;56035;37.534;-122.308;2023-09-30T01:59:09;3.22;;;0.85;;
68985;SDS011;56035;37.534;-122.308;2023-09-30T02:04:02;8.07;;;1.73;;
68985;SDS011;56035;37.534;-122.308;2023-09-30T02:06:32;8.13;;;1.35;;
68985;SDS011;56035;37.534;-122.308;2023-09-30T02:08:59;7.63;;;1.27;;
68985;SDS011;56035;37.534;-122.308;2023-09-30T02:11:26;4.68;;;1.00;;
68985;SDS011;56035;37.534;-122.308;2023-09-30T02:13:53;3.90;;;1.15;;
68985;SDS011;56035;37.534;-122.308;2023-09-30T02:16:40;5.55;;;1.42;;
68985;SDS011;56035;37.534;-122.308;2023-09-30T02:25:47;4.13;;;1.00;;
68985;SDS011;56035;37.534;-122.308;2023-09-30T02:28:13;3.60;;;0.90;;
68985;SDS011;56035;37.534;-122.308;2023-09-30T02:30:40;8.32;;;1.48;;
68985;SDS011;56035;37.534;-122.308;2023-09-30T02:33:06;7.55;;;1.58;;
68985;SDS011;56035;37.534;-122.308;2023-09-30T02:35:33;4.10;;;1.13;;
68985;SDS011;56035;37.534;-122.308;2023-09-30T02:37:59;4.30;;;1.30;;
68985;SDS011;56035;37.534;-122.308;2023-09-30T02:40:26;7.93;;;1.65;;
68985;SDS011;56035;37.534;-122.308;2023-09-30T02:42:52;4.55;;;1.05;;
68985;SDS011;56035;37.534;-122.308;2023-09-30T02:45:19;3.10;;;0.95;;
68985;SDS011;56035;37.534;-122.308;2023-09-30T02:47:45;8.13;;;1.20;;
68985;SDS011;56035;37.534;-122.308;2023-09-30T02:50:12;6.10;;;1.38;;
68985;SDS011;56035;37.534;-122.308;2023-09-30T02:52:41;4.97;;;1.53;;
68985;SDS011;56035;37.534;-122.308;2023-09-30T02:55:11;4.32;;;1.00;;
68985;SDS011;56035;37.534;-122.308;2023-09-30T02:57:38;5.93;;;1.20;;
68985;SDS011;56035;37.534;-122.308;2023-09-30T03:02:50;6.03;;;1.50;;
68985;SDS011;56035;37.534;-122.308;2023-09-30T03:05:17;8.82;;;1.30;;
68985;SDS011;56035;37.534;-122.308;2023-09-30T03:07:45;5.03;;;1.57;;
68985;SDS011;56035;37.534;-122.308;2023-09-30T03:10:12;8.93;;;1.93;;
68985;SDS011;56035;37.534;-122.308;2023-09-30T03:12:52;4.17;;;1.00;;
68985;SDS011;56035;37.534;-122.308;2023-09-30T03:15:19;4.47;;;0.97;;
68985;SDS011;56035;37.534;-122.308;2023-09-30T03:17:46;7.18;;;1.20;;
68985;SDS011;56035;37.534;-122.308;2023-09-30T03:20:12;8.77;;;1.20;;
68985;SDS011;56035;37.534;-122.308;2023-09-30T03:22:42;7.27;;;1.30;;
68985;SDS011;56035;37.534;-122.308;2023-09-30T03:25:12;4.97;;;1.30;;
68985;SDS011;56035;37.534;-122.308;2023-09-30T03:27:41;6.68;;;1.00;;
68985;SDS011;56035;37.534;-122.308;2023-09-30T03:30:08;5.37;;;1.37;;
68985;SDS011;56035;37.534;-122.308;2023-09-30T03:32:37;8.00;;;1.27;;
68985;SDS011;56035;37.534;-122.308;2023-09-30T03:35:07;6.35;;;1.13;;
68985;SDS011;56035;37.534;-122.308;2023-09-30T03:37:44;6.97;;;1.63;;
68985;SDS011;56035;37.534;-122.308;2023-09-30T03:40:12;9.63;;;1.60;;
68985;SDS011;56035;37.534;-122.308;2023-09-30T03:42:53;8.13;;;1.57;;
68985;SDS011;56035;37.534;-122.308;2023-09-30T03:45:20;7.70;;;1.40;;
68985;SDS011;56035;37.534;-122.308;2023-09-30T03:47:47;7.13;;;1.33;;
68985;SDS011;56035;37.534;-122.308;2023-09-30T03:52:40;7.13;;;1.87;;
68985;SDS011;56035;37.534;-122.308;2023-09-30T03:55:13;10.33;;;1.93;;
68985;SDS011;56035;37.534;-122.308;2023-09-30T03:57:43;5.97;;;1.50;;
68985;SDS011;56035;37.534;-122.308;2023-09-30T04:00:13;9.33;;;1.63;;
68985;SDS011;56035;37.534;-122.308;2023-09-30T04:02:44;8.87;;;1.73;;
68985;SDS011;56035;37.534;-122.308;2023-09-30T04:05:14;9.53;;;2.03;;
68985;SDS011;56035;37.534;-122.308;2023-09-30T04:07:42;6.77;;;1.13;;
68985;SDS011;56035;37.534;-122.308;2023-09-30T04:10:09;9.50;;;1.67;;
68985;SDS011;56035;37.534;-122.308;2023-09-30T04:15:02;6.53;;;1.83;;
68985;SDS011;56035;37.534;-122.308;2023-09-30T04:17:32;8.60;;;2.00;;
68985;SDS011;56035;37.534;-122.308;2023-09-30T04:19:58;9.30;;;2.22;;
68985;SDS011;56035;37.534;-122.308;2023-09-30T04:22:25;8.35;;;1.92;;
68985;SDS011;56035;37.534;-122.308;2023-09-30T04:24:53;8.68;;;1.73;;
68985;SDS011;56035;37.534;-122.308;2023-09-30T04:27:20;10.68;;;2.65;;
68985;SDS011;56035;37.534;-122.308;2023-09-30T04:29:46;7.17;;;1.93;;
68985;SDS011;56035;37.534;-122.308;2023-09-30T04:32:14;8.87;;;1.60;;
68985;SDS011;56035;37.534;-122.308;2023-09-30T04:34:40;9.70;;;2.00;;
68985;SDS011;56035;37.534;-122.308;2023-09-30T04:37:07;8.80;;;2.03;;
68985;SDS011;56035;37.534;-122.308;2023-09-30T04:39:34;7.93;;;2.07;;
68985;SDS011;56035;37.534;-122.308;2023-09-30T04:42:01;14.77;;;2.55;;
68985;SDS011;56035;37.534;-122.308;2023-09-30T04:44:29;11.83;;;2.73;;
68985;SDS011;56035;37.534;-122.308;2023-09-30T04:46:55;11.23;;;2.50;;
68985;SDS011;56035;37.534;-122.308;2023-09-30T04:51:48;10.40;;;2.17;;
68985;SDS011;56035;37.534;-122.308;2023-09-30T04:54:15;13.30;;;2.53;;
68985;SDS011;56035;37.534;-122.308;2023-09-30T04:56:41;10.40;;;1.70;;
68985;SDS011;56035;37.534;-122.308;2023-09-30T04:59:08;14.15;;;2.95;;
68985;SDS011;56035;37.534;-122.308;2023-09-30T05:01:34;12.57;;;2.28;;
68985;SDS011;56035;37.534;-122.308;2023-09-30T05:04:00;8.07;;;1.65;;
68985;SDS011;56035;37.534;-122.308;2023-09-30T05:06:28;12.87;;;1.80;;
68985;SDS011;56035;37.534;-122.308;2023-09-30T05:08:54;12.13;;;2.88;;
68985;SDS011;56035;37.534;-122.308;2023-09-30T05:11:20;11.10;;;1.95;;
68985;SDS011;56035;37.534;-122.308;2023-09-30T05:13:47;9.35;;;1.90;;
68985;SDS011;56035;37.534;-122.308;2023-09-30T05:16:13;7.57;;;1.80;;
68985;SDS011;56035;37.534;-122.308;2023-09-30T05:18:40;14.23;;;2.50;;
68985;SDS011;56035;37.534;-122.308;2023-09-30T05:23:33;11.40;;;2.00;;
68985;SDS011;56035;37.534;-122.308;2023-09-30T05:25:59;10.57;;;2.40;;
68985;SDS011;56035;37.534;-122.308;2023-09-30T05:28:26;17.23;;;2.67;;
68985;SDS011;56035;37.534;-122.308;2023-09-30T05:30:53;11.65;;;2.58;;
68985;SDS011;56035;37.534;-122.308;2023-09-30T05:33:19;9.82;;;1.65;;
68985;SDS011;56035;37.534;-122.308;2023-09-30T05:35:46;10.88;;;2.38;;
68985;SDS011;56035;37.534;-122.308;2023-09-30T05:38:13;13.07;;;3.10;;
68985;SDS011;56035;37.534;-122.308;2023-09-30T05:40:39;14.07;;;2.05;;
68985;SDS011;56035;37.534;-122.308;2023-09-30T05:43:07;9.83;;;1.80;;
68985;SDS011;56035;37.534;-122.308;2023-09-30T05:45:33;13.48;;;2.47;;
68985;SDS011;56035;37.534;-122.308;2023-09-30T05:48:01;12.95;;;2.20;;
68985;SDS011;56035;37.534;-122.308;2023-09-30T05:50:31;11.63;;;2.00;;
68985;SDS011;56035;37.534;-122.308;2023-09-30T05:52:59;8.00;;;2.10;;
68985;SDS011;56035;37.534;-122.308;2023-09-30T05:55:26;9.63;;;2.03;;
68985;SDS011;56035;37.534;-122.308;2023-09-30T05:57:53;14.20;;;2.70;;
68985;SDS011;56035;37.534;-122.308;2023-09-30T06:00:19;9.07;;;1.92;;
68985;SDS011;56035;37.534;-122.308;2023-09-30T06:02:54;11.03;;;2.10;;
68985;SDS011;56035;37.534;-122.308;2023-09-30T06:05:20;10.20;;;2.00;;
68985;SDS011;56035;37.534;-122.308;2023-09-30T06:07:55;12.40;;;2.10;;
68985;SDS011;56035;37.534;-122.308;2023-09-30T06:10:22;10.60;;;2.00;;
68985;SDS011;56035;37.534;-122.308;2023-09-30T06:12:50;11.32;;;2.28;;
68985;SDS011;56035;37.534;-122.308;2023-09-30T06:15:20;8.80;;;1.63;;
68985;SDS011;56035;37.534;-122.308;2023-09-30T06:17:53;11.93;;;2.20;;
68985;SDS011;56035;37.534;-122.308;2023-09-30T06:20:25;10.50;;;1.93;;
68985;SDS011;56035;37.534;-122.308;2023-09-30T06:22:52;8.30;;;2.50;;
68985;SDS011;56035;37.534;-122.308;2023-09-30T06:25:21;10.40;;;2.83;;
68985;SDS011;56035;37.534;-122.308;2023-09-30T06:27:51;12.17;;;2.27;;
68985;SDS011;56035;37.534;-122.308;2023-09-30T06:30:18;10.25;;;2.10;;
68985;SDS011;56035;37.534;-122.308;2023-09-30T06:32:46;10.67;;;2.63;;
68985;SDS011;56035;37.534;-122.308;2023-09-30T06:35:13;13.67;;;2.43;;
68985;SDS011;56035;37.534;-122.308;2023-09-30T06:37:40;11.65;;;2.40;;
68985;SDS011;56035;37.534;-122.308;2023-09-30T06:40:08;10.50;;;2.20;;
68985;SDS011;56035;37.534;-122.308;2023-09-30T06:42:37;15.53;;;2.27;;
68985;SDS011;56035;37.534;-122.308;2023-09-30T06:45:05;15.77;;;2.93;;
68985;SDS011;56035;37.534;-122.308;2023-09-30T06:47:33;9.13;;;1.93;;
68985;SDS011;56035;37.534;-122.308;2023-09-30T06:50:03;12.60;;;2.20;;
68985;SDS011;56035;37.534;-122.308;2023-09-30T06:52:38;12.00;;;2.07;;
68985;SDS011;56035;37.534;-122.308;2023-09-30T06:55:06;7.07;;;1.53;;
68985;SDS011;56035;37.534;-122.308;2023-09-30T06:57:33;11.57;;;1.97;;
68985;SDS011;56035;37.534;-122.308;2023-09-30T07:00:01;8.87;;;2.03;;
68985;SDS011;56035;37.534;-122.308;2023-09-30T07:02:34;8.80;;;1.43;;
68985;SDS011;56035;37.534;-122.308;2023-09-30T07:05:05;12.53;;;2.53;;
68985;SDS011;56035;37.534;-122.308;2023-09-30T07:07:38;10.10;;;1.73;;
68985;SDS011;56035;37.534;-122.308;2023-09-30T07:12:31;8.60;;;2.00;;
68985;SDS011;56035;37.534;-122.308;2023-09-30T07:15:01;5.90;;;1.70;;
68985;SDS011;56035;37.534;-122.308;2023-09-30T07:17:28;7.53;;;1.60;;
68985;SDS011;56035;37.534;-122.308;2023-09-30T07:19:55;7.67;;;1.77;;
68985;SDS011;56035;37.534;-122.308;2023-09-30T07:22:22;6.65;;;1.98;;
68985;SDS011;56035;37.534;-122.308;2023-09-30T07:24:48;8.38;;;1.60;;
68985;SDS011;56035;37.534;-122.308;2023-09-30T07:27:15;10.95;;;1.70;;
68985;SDS011;56035;37.534;-122.308;2023-09-30T07:29:43;11.27;;;2.07;;
68985;SDS011;56035;37.534;-122.308;2023-09-30T07:32:09;8.93;;;1.83;;
68985;SDS011;56035;37.534;-122.308;2023-09-30T07:34:36;11.88;;;3.17;;
68985;SDS011;56035;37.534;-122.308;2023-09-30T07:37:02;9.98;;;2.45;;
68985;SDS011;56035;37.534;-122.308;2023-09-30T07:39:29;6.75;;;1.60;;
68985;SDS011;56035;37.534;-122.308;2023-09-30T07:41:56;9.80;;;1.83;;
68985;SDS011;56035;37.534;-122.308;2023-09-30T07:44:22;6.88;;;1.77;;
68985;SDS011;56035;37.534;-122.308;2023-09-30T07:46:49;9.95;;;1.88;;
68985;SDS011;56035;37.534;-122.308;2023-09-30T07:49:15;6.65;;;1.38;;
68985;SDS011;56035;37.534;-122.308;2023-09-30T07:51:42;5.95;;;1.50;;
68985;SDS011;56035;37.534;-122.308;2023-09-30T07:54:08;8.73;;;1.42;;
68985;SDS011;56035;37.534;-122.308;2023-09-30T07:56:34;6.80;;;1.50;;
68985;SDS011;56035;37.534;-122.308;2023-09-30T07:59:01;8.15;;;1.95;;
68985;SDS011;56035;37.534;-122.308;2023-09-30T08:01:27;7.18;;;1.77;;
68985;SDS011;56035;37.534;-122.308;2023-09-30T08:03:55;7.37;;;2.03;;
68985;SDS011;56035;37.534;-122.308;2023-09-30T08:06:22;9.05;;;1.92;;
68985;SDS011;56035;37.534;-122.308;2023-09-30T08:08:48;7.00;;;1.90;;
68985;SDS011;56035;37.534;-122.308;2023-09-30T08:11:17;5.45;;;1.95;;
68985;SDS011;56035;37.534;-122.308;2023-09-30T08:13:46;7.17;;;1.90;;
68985;SDS011;56035;37.534;-122.308;2023-09-30T08:16:13;9.30;;;1.97;;
68985;SDS011;56035;37.534;-122.308;2023-09-30T08:18:39;5.90;;;2.40;;
68985;SDS011;56035;37.534;-122.308;2023-09-30T08:21:08;8.20;;;2.03;;
68985;SDS011;56035;37.534;-122.308;2023-09-30T08:23:36;6.93;;;1.40;;
68985;SDS011;56035;37.534;-122.308;2023-09-30T08:26:04;5.67;;;1.30;;
68985;SDS011;56035;37.534;-122.308;2023-09-30T08:28:31;8.80;;;2.10;;
68985;SDS011;56035;37.534;-122.308;2023-09-30T08:31:04;6.78;;;1.38;;
68985;SDS011;56035;37.534;-122.308;2023-09-30T08:33:31;6.77;;;1.53;;
68985;SDS011;56035;37.534;-122.308;2023-09-30T08:38:32;3.57;;;0.90;;
68985;SDS011;56035;37.534;-122.308;2023-09-30T08:41:30;2.90;;;0.80;;
68985;SDS011;56035;37.534;-122.308;2023-09-30T08:44:01;5.50;;;0.90;;
68985;SDS011;56035;37.534;-122.308;2023-09-30T08:46:32;3.53;;;0.90;;
68985;SDS011;56035;37.534;-122.308;2023-09-30T08:49:03;5.50;;;1.30;;
68985;SDS011;56035;37.534;-122.308;2023-09-30T08:51:31;3.77;;;1.40;;
68985;SDS011;56035;37.534;-122.308;2023-09-30T08:53:58;9.30;;;1.87;;
68985;SDS011;56035;37.534;-122.308;2023-09-30T08:56:29;7.60;;;1.40;;
68985;SDS011;56035;37.534;-122.308;2023-09-30T08:58:58;5.40;;;1.40;;
68985;SDS011;56035;37.534;-122.308;2023-09-30T09:01:26;5.03;;;1.70;;
68985;SDS011;56035;37.534;-122.308;2023-09-30T09:03:53;6.07;;;2.13;;
68985;SDS011;56035;37.534;-122.308;2023-09-30T09:06:20;5.83;;;2.10;;
68985;SDS011;56035;37.534;-122.308;2023-09-30T09:08:47;6.83;;;2.40;;
68985;SDS011;56035;37.534;-122.308;2023-09-30T09:11:14;5.85;;;2.33;;
68985;SDS011;56035;37.534;-122.308;2023-09-30T09:13:50;11.65;;;2.88;;
68985;SDS011;56035;37.534;-122.308;2023-09-30T09:16:21;9.73;;;2.10;;
68985;SDS011;56035;37.534;-122.308;2023-09-30T09:18:48;7.50;;;2.03;;
68985;SDS011;56035;37.534;-122.308;2023-09-30T09:21:16;8.83;;;2.67;;
68985;SDS011;56035;37.534;-122.308;2023-09-30T09:23:48;9.30;;;2.30;;
68985;SDS011;56035;37.534;-122.308;2023-09-30T09:29:02;5.97;;;2.10;;
68985;SDS011;56035;37.534;-122.308;2023-09-30T09:31:34;8.17;;;2.40;;
68985;SDS011;56035;37.534;-122.308;2023-09-30T09:34:01;8.07;;;2.20;;
68985;SDS011;56035;37.534;-122.308;2023-09-30T09:36:41;9.97;;;2.53;;
68985;SDS011;56035;37.534;-122.308;2023-09-30T09:39:09;9.90;;;2.90;;
68985;SDS011;56035;37.534;-122.308;2023-09-30T09:44:23;9.90;;;2.70;;
68985;SDS011;56035;37.534;-122.308;2023-09-30T09:46:53;9.73;;;2.57;;
68985;SDS011;56035;37.534;-122.308;2023-09-30T09:49:19;8.63;;;2.28;;
68985;SDS011;56035;37.534;-122.308;2023-09-30T09:51:46;10.13;;;2.20;;
68985;SDS011;56035;37.534;-122.308;2023-09-30T09:54:14;7.87;;;2.20;;
68985;SDS011;56035;37.534;-122.308;2023-09-30T09:56:43;11.80;;;2.70;;
68985;SDS011;56035;37.534;-122.308;2023-09-30T09:59:11;9.30;;;2.43;;
68985;SDS011;56035;37.534;-122.308;2023-09-30T10:01:39;9.90;;;2.00;;
68985;SDS011;56035;37.534;-122.308;2023-09-30T10:04:06;8.47;;;2.20;;
68985;SDS011;56035;37.534;-122.308;2023-09-30T10:06:33;9.32;;;2.55;;
68985;SDS011;56035;37.534;-122.308;2023-09-30T10:09:07;9.00;;;2.00;;
68985;SDS011;56035;37.534;-122.308;2023-09-30T10:11:35;8.83;;;2.87;;
68985;SDS011;56035;37.534;-122.308;2023-09-30T10:14:05;7.37;;;2.13;;
68985;SDS011;56035;37.534;-122.308;2023-09-30T10:19:15;8.03;;;2.60;;
68985;SDS011;56035;37.534;-122.308;2023-09-30T10:24:45;7.97;;;2.07;;
68985;SDS011;56035;37.534;-122.308;2023-09-30T10:30:13;7.77;;;1.50;;
68985;SDS011;56035;37.534;-122.308;2023-09-30T10:35:20;5.60;;;1.60;;
68985;SDS011;56035;37.534;-122.308;2023-09-30T10:40:49;4.73;;;1.37;;
68985;SDS011;56035;37.534;-122.308;2023-09-30T10:43:29;6.97;;;1.92;;
68985;SDS011;56035;37.534;-122.308;2023-09-30T10:45:56;7.03;;;1.30;;
68985;SDS011;56035;37.534;-122.308;2023-09-30T10:51:10;7.67;;;2.10;;
68985;SDS011;56035;37.534;-122.308;2023-09-30T10:53:44;5.53;;;1.57;;
68985;SDS011;56035;37.534;-122.308;2023-09-30T10:56:11;5.93;;;1.27;;
68985;SDS011;56035;37.534;-122.308;2023-09-30T11:01:18;5.17;;;1.20;;
68985;SDS011;56035;37.534;-122.308;2023-09-30T11:03:49;8.30;;;1.33;;
68985;SDS011;56035;37.534;-122.308;2023-09-30T11:06:17;8.33;;;1.30;;
68985;SDS011;56035;37.534;-122.308;2023-09-30T11:08:50;3.37;;;1.10;;
68985;SDS011;56035;37.534;-122.308;2023-09-30T11:11:17;6.03;;;1.10;;
68985;SDS011;56035;37.534;-122.308;2023-09-30T11:13:43;5.90;;;1.63;;
68985;SDS011;56035;37.534;-122.308;2023-09-30T11:16:10;8.65;;;1.77;;
68985;SDS011;56035;37.534;-122.308;2023-09-30T11:18:36;8.50;;;1.33;;
68985;SDS011;56035;37.534;-122.308;2023-09-30T11:21:10;5.93;;;1.40;;
68985;SDS011;56035;37.534;-122.308;2023-09-30T11:23:38;4.57;;;1.47;;
68985;SDS011;56035;37.534;-122.308;2023-09-30T11:26:05;10.63;;;1.77;;
68985;SDS011;56035;37.534;-122.308;2023-09-30T11:28:35;10.98;;;1.60;;
68985;SDS011;56035;37.534;-122.308;2023-09-30T11:31:03;7.60;;;1.50;;
68985;SDS011;56035;37.534;-122.308;2023-09-30T11:33:32;5.63;;;1.60;;
68985;SDS011;56035;37.534;-122.308;2023-09-30T11:36:03;9.23;;;1.50;;
68985;SDS011;56035;37.534;-122.308;2023-09-30T11:38:34;8.47;;;1.50;;
68985;SDS011;56035;37.534;-122.308;2023-09-30T11:41:01;8.23;;;1.57;;
68985;SDS011;56035;37.534;-122.308;2023-09-30T11:43:32;10.73;;;1.27;;
68985;SDS011;56035;37.534;-122.308;2023-09-30T11:46:04;6.63;;;1.83;;
68985;SDS011;56035;37.534;-122.308;2023-09-30T11:48:34;5.83;;;1.50;;
68985;SDS011;56035;37.534;-122.308;2023-09-30T11:51:02;6.57;;;1.00;;
68985;SDS011;56035;37.534;-122.308;2023-09-30T11:53:29;5.07;;;1.00;;
68985;SDS011;56035;37.534;-122.308;2023-09-30T11:55:56;4.10;;;1.50;;
68985;SDS011;56035;37.534;-122.308;2023-09-30T11:58:25;3.97;;;1.00;;
68985;SDS011;56035;37.534;-122.308;2023-09-30T12:00:55;3.93;;;1.10;;
68985;SDS011;56035;37.534;-122.308;2023-09-30T12:03:25;6.00;;;1.57;;
68985;SDS011;56035;37.534;-122.308;2023-09-30T12:05:55;4.33;;;0.90;;
68985;SDS011;56035;37.534;-122.308;2023-09-30T12:08:22;4.47;;;1.10;;
68985;SDS011;56035;37.534;-122.308;2023-09-30T12:10:49;3.90;;;0.90;;
68985;SDS011;56035;37.534;-122.308;2023-09-30T12:13:15;9.13;;;1.63;;
68985;SDS011;56035;37.534;-122.308;2023-09-30T12:15:42;5.00;;;1.17;;
68985;SDS011;56035;37.534;-122.308;2023-09-30T12:18:09;5.10;;;1.33;;
68985;SDS011;56035;37.534;-122.308;2023-09-30T12:20:39;1.63;;;0.53;;
68985;SDS011;56035;37.534;-122.308;2023-09-30T12:23:06;3.73;;;1.20;;
68985;SDS011;56035;37.534;-122.308;2023-09-30T12:25:33;4.57;;;1.00;;
68985;SDS011;56035;37.534;-122.308;2023-09-30T12:27:59;2.45;;;0.90;;
68985;SDS011;56035;37.534;-122.308;2023-09-30T12:30:26;1.98;;;0.75;;
68985;SDS011;56035;37.534;-122.308;2023-09-30T12:32:52;4.28;;;0.90;;
68985;SDS011;56035;37.534;-122.308;2023-09-30T12:35:20;6.17;;;1.90;;
68985;SDS011;56035;37.534;-122.308;2023-09-30T12:37:46;3.90;;;1.00;;
68985;SDS011;56035;37.534;-122.308;2023-09-30T12:40:13;4.18;;;1.30;;
68985;SDS011;56035;37.534;-122.308;2023-09-30T12:42:45;2.43;;;0.77;;
68985;SDS011;56035;37.534;-122.308;2023-09-30T12:45:12;5.07;;;1.10;;
68985;SDS011;56035;37.534;-122.308;2023-09-30T12:47:39;1.70;;;0.70;;
68985;SDS011;56035;37.534;-122.308;2023-09-30T12:50:06;2.85;;;1.13;;
68985;SDS011;56035;37.534;-122.308;2023-09-30T12:52:34;4.60;;;1.10;;
68985;SDS011;56035;37.534;-122.308;2023-09-30T12:57:27;4.70;;;0.70;;
68985;SDS011;56035;37.534;-122.308;2023-09-30T12:59:54;2.35;;;0.90;;
68985;SDS011;56035;37.534;-122.308;2023-09-30T13:02:20;4.10;;;1.05;;
68985;SDS011;56035;37.534;-122.308;2023-09-30T13:04:46;5.25;;;1.10;;
68985;SDS011;56035;37.534;-122.308;2023-09-30T13:07:14;8.90;;;1.87;;
68985;SDS011;56035;37.534;-122.308;2023-09-30T13:09:40;7.45;;;1.98;;
68985;SDS011;56035;37.534;-122.308;2023-09-30T13:14:34;17.93;;;4.20;;
68985;SDS011;56035;37.534;-122.308;2023-09-30T13:17:00;22.27;;;4.50;;
68985;SDS011;56035;37.534;-122.308;2023-09-30T13:19:28;19.13;;;4.40;;
68985;SDS011;56035;37.534;-122.308;2023-09-30T13:21:55;20.50;;;5.32;;
68985;SDS011;56035;37.534;-122.308;2023-09-30T13:24:22;15.50;;;4.95;;
68985;SDS011;56035;37.534;-122.308;2023-09-30T13:26:48;22.70;;;6.30;;
68985;SDS011;56035;37.534;-122.308;2023-09-30T13:29:18;28.77;;;7.07;;
68985;SDS011;56035;37.534;-122.308;2023-09-30T13:34:11;32.50;;;7.57;;
68985;SDS011;56035;37.534;-122.308;2023-09-30T13:36:40;28.50;;;7.47;;
68985;SDS011;56035;37.534;-122.308;2023-09-30T13:39:06;30.08;;;9.38;;
68985;SDS011;56035;37.534;-122.308;2023-09-30T13:41:38;29.30;;;7.83;;
68985;SDS011;56035;37.534;-122.308;2023-09-30T13:44:05;33.77;;;8.67;;
68985;SDS011;56035;37.534;-122.308;2023-09-30T13:46:32;25.92;;;8.95;;
68985;SDS011;56035;37.534;-122.308;2023-09-30T13:48:58;25.02;;;9.25;;
68985;SDS011;56035;37.534;-122.308;2023-09-30T13:51:25;30.55;;;8.85;;
68985;SDS011;56035;37.534;-122.308;2023-09-30T13:53:51;25.35;;;8.43;;
68985;SDS011;56035;37.534;-122.308;2023-09-30T13:56:20;28.17;;;8.33;;
68985;SDS011;56035;37.534;-122.308;2023-09-30T13:58:47;27.25;;;8.93;;
68985;SDS011;56035;37.534;-122.308;2023-09-30T14:01:17;30.43;;;9.07;;
68985;SDS011;56035;37.534;-122.308;2023-09-30T14:03:45;28.33;;;8.50;;
68985;SDS011;56035;37.534;-122.308;2023-09-30T14:06:15;31.70;;;9.53;;
68985;SDS011;56035;37.534;-122.308;2023-09-30T14:08:41;30.98;;;8.25;;
68985;SDS011;56035;37.534;-122.308;2023-09-30T14:11:11;25.03;;;8.13;;
68985;SDS011;56035;37.534;-122.308;2023-09-30T14:13:37;26.88;;;7.75;;
68985;SDS011;56035;37.534;-122.308;2023-09-30T14:16:07;26.60;;;8.10;;
68985;SDS011;56035;37.534;-122.308;2023-09-30T14:18:34;30.13;;;8.52;;
68985;SDS011;56035;37.534;-122.308;2023-09-30T14:21:01;24.27;;;7.10;;
68985;SDS011;56035;37.534;-122.308;2023-09-30T14:23:28;26.80;;;7.95;;
68985;SDS011;56035;37.534;-122.308;2023-09-30T14:25:54;25.52;;;8.45;;
68985;SDS011;56035;37.534;-122.308;2023-09-30T14:28:21;27.58;;;8.70;;
68985;SDS011;56035;37.534;-122.308;2023-09-30T14:30:48;38.10;;;8.47;;
68985;SDS011;56035;37.534;-122.308;2023-09-30T14:33:18;26.30;;;7.70;;
68985;SDS011;56035;37.534;-122.308;2023-09-30T14:35:45;31.75;;;8.27;;
68985;SDS011;56035;37.534;-122.308;2023-09-30T14:38:12;19.92;;;6.68;;
68985;SDS011;56035;37.534;-122.308;2023-09-30T14:40:38;24.20;;;8.00;;
68985;SDS011;56035;37.534;-122.308;2023-09-30T14:43:07;21.20;;;7.07;;
68985;SDS011;56035;37.534;-122.308;2023-09-30T14:45:38;21.33;;;6.80;;
68985;SDS011;56035;37.534;-122.308;2023-09-30T14:48:06;22.77;;;7.60;;
68985;SDS011;56035;37.534;-122.308;2023-09-30T14:50:33;22.40;;;6.70;;
68985;SDS011;56035;37.534;-122.308;2023-09-30T14:52:59;17.70;;;6.13;;
68985;SDS011;56035;37.534;-122.308;2023-09-30T14:55:26;22.95;;;6.07;;
68985;SDS011;56035;37.534;-122.308;2023-09-30T14:57:52;22.35;;;6.57;;
68985;SDS011;56035;37.534;-122.308;2023-09-30T15:00:19;30.45;;;6.07;;
68985;SDS011;56035;37.534;-122.308;2023-09-30T15:02:47;20.77;;;5.53;;
68985;SDS011;56035;37.534;-122.308;2023-09-30T15:05:15;19.20;;;5.63;;
68985;SDS011;56035;37.534;-122.308;2023-09-30T15:07:42;16.30;;;5.13;;
68985;SDS011;56035;37.534;-122.308;2023-09-30T15:10:08;18.70;;;6.03;;
68985;SDS011;56035;37.534;-122.308;2023-09-30T15:12:35;22.67;;;6.15;;
68985;SDS011;56035;37.534;-122.308;2023-09-30T15:15:01;22.83;;;6.78;;
68985;SDS011;56035;37.534;-122.308;2023-09-30T15:17:29;16.87;;;5.13;;
68985;SDS011;56035;37.534;-122.308;2023-09-30T15:19:55;23.30;;;6.65;;
68985;SDS011;56035;37.534;-122.308;2023-09-30T15:22:23;15.30;;;5.23;;
68985;SDS011;56035;37.534;-122.308;2023-09-30T15:24:49;23.15;;;5.78;;